sensor_id;sensor_type;location;lat;lon;timestamp;pressure;altitude;pressure_sealevel;temperature
82297;BMP280;71899;51.992;8.648;2023-12-29T00:01:18;99429.97;;;10.43
82297;BMP280;71899;51.992;8.648;2023-12-29T00:03:43;99422.38;;;10.40
82297;BMP280;71899;51.992;8.648;2023-12-29T00:06:10;99421.91;;;10.47
82297;BMP280;71899;51.992;8.648;2023-12-29T00:08:36;99409.16;;;10.31
82297;BMP280;71899;51.992;8.648;2023-12-29T00:11:02;99416.75;;;10.23
82297;BMP280;71899;51.992;8.648;2023-12-29T00:13:27;99419.25;;;10.35
82297;BMP280;71899;51.992;8.648;2023-12-29T00:15:53;99435.09;;;10.45
82297;BMP280;71899;51.992;8.648;2023-12-29T00:18:29;99410.28;;;10.51
82297;BMP280;71899;51.992;8.648;2023-12-29T00:20:55;99415.41;;;10.52
82297;BMP280;71899;51.992;8.648;2023-12-29T00:23:21;99404.25;;;10.61
82297;BMP280;71899;51.992;8.648;2023-12-29T00:25:47;99419.84;;;10.63
82297;BMP280;71899;51.992;8.648;2023-12-29T00:28:13;99404.34;;;10.60
82297;BMP280;71899;51.992;8.648;2023-12-29T00:30:39;99403.66;;;10.58
82297;BMP280;71899;51.992;8.648;2023-12-29T00:33:05;99389.06;;;10.66
82297;BMP280;71899;51.992;8.648;2023-12-29T00:35:32;99385.25;;;10.81
82297;BMP280;71899;51.992;8.648;2023-12-29T00:37:57;99394.44;;;10.76
82297;BMP280;71899;51.992;8.648;2023-12-29T00:40:25;99396.44;;;10.72
82297;BMP280;71899;51.992;8.648;2023-12-29T00:42:52;99381.00;;;10.69
82297;BMP280;71899;51.992;8.648;2023-12-29T00:45:17;99385.03;;;10.73
82297;BMP280;71899;51.992;8.648;2023-12-29T00:47:43;99387.50;;;10.64
82297;BMP280;71899;51.992;8.648;2023-12-29T00:50:09;99400.41;;;10.43
82297;BMP280;71899;51.992;8.648;2023-12-29T00:52:34;99388.88;;;10.34
82297;BMP280;71899;51.992;8.648;2023-12-29T00:55:01;99388.19;;;10.43
82297;BMP280;71899;51.992;8.648;2023-12-29T00:57:27;99375.41;;;10.28
82297;BMP280;71899;51.992;8.648;2023-12-29T00:59:52;99381.00;;;10.23
82297;BMP280;71899;51.992;8.648;2023-12-29T01:02:18;99374.88;;;10.12
82297;BMP280;71899;51.992;8.648;2023-12-29T01:04:43;99380.75;;;10.03
82297;BMP280;71899;51.992;8.648;2023-12-29T01:07:09;99385.00;;;9.92
82297;BMP280;71899;51.992;8.648;2023-12-29T01:09:38;99363.41;;;9.90
82297;BMP280;71899;51.992;8.648;2023-12-29T01:12:08;99371.09;;;9.92
82297;BMP280;71899;51.992;8.648;2023-12-29T01:14:34;99382.16;;;9.95
82297;BMP280;71899;51.992;8.648;2023-12-29T01:17:00;99385.81;;;9.93
82297;BMP280;71899;51.992;8.648;2023-12-29T01:19:25;99378.72;;;9.95
82297;BMP280;71899;51.992;8.648;2023-12-29T01:21:50;99385.13;;;9.91
82297;BMP280;71899;51.992;8.648;2023-12-29T01:24:16;99383.78;;;9.85
82297;BMP280;71899;51.992;8.648;2023-12-29T01:26:41;99380.56;;;9.82
82297;BMP280;71899;51.992;8.648;2023-12-29T01:29:07;99381.38;;;9.82
82297;BMP280;71899;51.992;8.648;2023-12-29T01:31:32;99378.31;;;9.77
82297;BMP280;71899;51.992;8.648;2023-12-29T01:33:58;99371.28;;;9.78
82297;BMP280;71899;51.992;8.648;2023-12-29T01:36:25;99353.78;;;9.91
82297;BMP280;71899;51.992;8.648;2023-12-29T01:38:50;99328.16;;;9.96
82297;BMP280;71899;51.992;8.648;2023-12-29T01:41:15;99332.22;;;10.00
82297;BMP280;71899;51.992;8.648;2023-12-29T01:46:21;99336.66;;;10.11
82297;BMP280;71899;51.992;8.648;2023-12-29T01:48:47;99342.03;;;10.20
82297;BMP280;71899;51.992;8.648;2023-12-29T01:51:14;99331.50;;;9.98
82297;BMP280;71899;51.992;8.648;2023-12-29T01:53:40;99331.50;;;10.22
82297;BMP280;71899;51.992;8.648;2023-12-29T01:56:06;99321.53;;;10.27
82297;BMP280;71899;51.992;8.648;2023-12-29T01:58:33;99315.72;;;10.23
82297;BMP280;71899;51.992;8.648;2023-12-29T02:01:00;99321.53;;;10.27
82297;BMP280;71899;51.992;8.648;2023-12-29T02:03:27;99305.75;;;10.39
82297;BMP280;71899;51.992;8.648;2023-12-29T02:05:54;99324.03;;;10.39
82297;BMP280;71899;51.992;8.648;2023-12-29T02:08:21;99307.88;;;10.45
82297;BMP280;71899;51.992;8.648;2023-12-29T02:10:47;99304.69;;;10.53
82297;BMP280;71899;51.992;8.648;2023-12-29T02:13:13;99308.41;;;10.73
82297;BMP280;71899;51.992;8.648;2023-12-29T02:15:38;99287.72;;;10.59
82297;BMP280;71899;51.992;8.648;2023-12-29T02:18:06;99301.97;;;10.55
82297;BMP280;71899;51.992;8.648;2023-12-29T02:20:33;99286.41;;;10.53
82297;BMP280;71899;51.992;8.648;2023-12-29T02:22:58;99303.28;;;10.60
82297;BMP280;71899;51.992;8.648;2023-12-29T02:25:24;99311.84;;;10.51
82297;BMP280;71899;51.992;8.648;2023-12-29T02:28:25;99293.91;;;10.58
82297;BMP280;71899;51.992;8.648;2023-12-29T02:31:09;99303.63;;;10.67
82297;BMP280;71899;51.992;8.648;2023-12-29T02:33:38;99308.75;;;10.68
82297;BMP280;71899;51.992;8.648;2023-12-29T02:36:05;99302.56;;;10.58
82297;BMP280;71899;51.992;8.648;2023-12-29T02:38:33;99314.09;;;10.44
82297;BMP280;71899;51.992;8.648;2023-12-29T02:40:59;99320.81;;;10.25
82297;BMP280;71899;51.992;8.648;2023-12-29T02:43:26;99337.56;;;10.10
82297;BMP280;71899;51.992;8.648;2023-12-29T02:45:51;99331.75;;;9.95
82297;BMP280;71899;51.992;8.648;2023-12-29T02:48:18;99322.44;;;9.80
82297;BMP280;71899;51.992;8.648;2023-12-29T02:50:43;99314.28;;;9.37
82297;BMP280;71899;51.992;8.648;2023-12-29T02:53:08;99328.16;;;9.25
82297;BMP280;71899;51.992;8.648;2023-12-29T02:55:34;99318.13;;;9.31
82297;BMP280;71899;51.992;8.648;2023-12-29T02:57:59;99323.34;;;9.31
82297;BMP280;71899;51.992;8.648;2023-12-29T03:00:25;99327.00;;;9.41
82297;BMP280;71899;51.992;8.648;2023-12-29T03:02:50;99327.91;;;9.40
82297;BMP280;71899;51.992;8.648;2023-12-29T03:05:15;99339.34;;;9.14
82297;BMP280;71899;51.992;8.648;2023-12-29T03:07:42;99323.41;;;9.19
82297;BMP280;71899;51.992;8.648;2023-12-29T03:10:07;99310.88;;;9.24
82297;BMP280;71899;51.992;8.648;2023-12-29T03:12:33;99290.44;;;9.18
82297;BMP280;71899;51.992;8.648;2023-12-29T03:14:59;99303.47;;;9.18
82297;BMP280;71899;51.992;8.648;2023-12-29T03:17:25;99302.38;;;9.09
82297;BMP280;71899;51.992;8.648;2023-12-29T03:19:52;99309.00;;;9.13
82297;BMP280;71899;51.992;8.648;2023-12-29T03:22:17;99287.28;;;9.02
82297;BMP280;71899;51.992;8.648;2023-12-29T03:24:43;99306.75;;;9.09
82297;BMP280;71899;51.992;8.648;2023-12-29T03:27:08;99304.38;;;9.06
82297;BMP280;71899;51.992;8.648;2023-12-29T03:29:34;99303.66;;;8.91
82297;BMP280;71899;51.992;8.648;2023-12-29T03:32:00;99285.88;;;9.09
82297;BMP280;71899;51.992;8.648;2023-12-29T03:34:25;99272.97;;;9.07
82297;BMP280;71899;51.992;8.648;2023-12-29T03:36:51;99269.84;;;9.02
82297;BMP280;71899;51.992;8.648;2023-12-29T03:39:17;99277.59;;;8.91
82297;BMP280;71899;51.992;8.648;2023-12-29T03:41:43;99278.63;;;8.88
82297;BMP280;71899;51.992;8.648;2023-12-29T03:44:09;99268.22;;;8.88
82297;BMP280;71899;51.992;8.648;2023-12-29T03:46:35;99258.97;;;8.84
82297;BMP280;71899;51.992;8.648;2023-12-29T03:49:01;99262.50;;;8.83
82297;BMP280;71899;51.992;8.648;2023-12-29T03:51:33;99238.84;;;9.10
82297;BMP280;71899;51.992;8.648;2023-12-29T03:54:05;99254.22;;;9.02
82297;BMP280;71899;51.992;8.648;2023-12-29T03:56:33;99259.00;;;8.95
82297;BMP280;71899;51.992;8.648;2023-12-29T03:59:01;99240.28;;;8.90
82297;BMP280;71899;51.992;8.648;2023-12-29T04:01:27;99250.69;;;8.90
82297;BMP280;71899;51.992;8.648;2023-12-29T04:03:53;99243.19;;;8.99
82297;BMP280;71899;51.992;8.648;2023-12-29T04:06:20;99257.00;;;9.12
82297;BMP280;71899;51.992;8.648;2023-12-29T04:08:45;99270.72;;;8.90
82297;BMP280;71899;51.992;8.648;2023-12-29T04:11:14;99256.97;;;8.88
82297;BMP280;71899;51.992;8.648;2023-12-29T04:13:51;99272.56;;;9.01
82297;BMP280;71899;51.992;8.648;2023-12-29T04:16:18;99256.53;;;8.81
82297;BMP280;71899;51.992;8.648;2023-12-29T04:18:48;99258.25;;;9.06
82297;BMP280;71899;51.992;8.648;2023-12-29T04:21:17;99260.59;;;8.98
82297;BMP280;71899;51.992;8.648;2023-12-29T04:23:42;99264.22;;;8.95
82297;BMP280;71899;51.992;8.648;2023-12-29T04:26:08;99276.63;;;9.05
82297;BMP280;71899;51.992;8.648;2023-12-29T04:28:33;99256.69;;;9.04
82297;BMP280;71899;51.992;8.648;2023-12-29T04:30:58;99279.31;;;9.03
82297;BMP280;71899;51.992;8.648;2023-12-29T04:33:24;99270.41;;;8.94
82297;BMP280;71899;51.992;8.648;2023-12-29T04:35:49;99284.75;;;9.00
82297;BMP280;71899;51.992;8.648;2023-12-29T04:38:14;99272.09;;;8.83
82297;BMP280;71899;51.992;8.648;2023-12-29T04:40:42;99270.34;;;9.07
82297;BMP280;71899;51.992;8.648;2023-12-29T04:43:08;99268.00;;;8.91
82297;BMP280;71899;51.992;8.648;2023-12-29T04:45:33;99271.25;;;8.95
82297;BMP280;71899;51.992;8.648;2023-12-29T04:47:58;99276.31;;;8.96
82297;BMP280;71899;51.992;8.648;2023-12-29T04:50:24;99278.13;;;8.83
82297;BMP280;71899;51.992;8.648;2023-12-29T04:52:50;99274.66;;;8.95
82297;BMP280;71899;51.992;8.648;2023-12-29T04:55:18;99263.19;;;8.98
82297;BMP280;71899;51.992;8.648;2023-12-29T04:57:43;99275.47;;;9.09
82297;BMP280;71899;51.992;8.648;2023-12-29T05:00:09;99278.09;;;8.96
82297;BMP280;71899;51.992;8.648;2023-12-29T05:02:35;99279.66;;;8.99
82297;BMP280;71899;51.992;8.648;2023-12-29T05:05:00;99273.72;;;8.96
82297;BMP280;71899;51.992;8.648;2023-12-29T05:07:26;99271.84;;;8.99
82297;BMP280;71899;51.992;8.648;2023-12-29T05:09:52;99283.38;;;9.07
82297;BMP280;71899;51.992;8.648;2023-12-29T05:12:18;99269.97;;;9.01
82297;BMP280;71899;51.992;8.648;2023-12-29T05:14:43;99262.44;;;9.09
82297;BMP280;71899;51.992;8.648;2023-12-29T05:17:09;99259.16;;;9.18
82297;BMP280;71899;51.992;8.648;2023-12-29T05:19:34;99256.44;;;9.19
82297;BMP280;71899;51.992;8.648;2023-12-29T05:21:59;99273.13;;;9.17
82297;BMP280;71899;51.992;8.648;2023-12-29T05:24:25;99274.69;;;9.19
82297;BMP280;71899;51.992;8.648;2023-12-29T05:26:50;99262.91;;;9.14
82297;BMP280;71899;51.992;8.648;2023-12-29T05:29:15;99277.78;;;9.24
82297;BMP280;71899;51.992;8.648;2023-12-29T05:31:41;99276.06;;;9.12
82297;BMP280;71899;51.992;8.648;2023-12-29T05:34:06;99255.53;;;9.08
82297;BMP280;71899;51.992;8.648;2023-12-29T05:36:35;99276.97;;;9.24
82297;BMP280;71899;51.992;8.648;2023-12-29T05:39:01;99254.88;;;9.40
82297;BMP280;71899;51.992;8.648;2023-12-29T05:41:27;99250.84;;;9.36
82297;BMP280;71899;51.992;8.648;2023-12-29T05:43:53;99265.00;;;9.45
82297;BMP280;71899;51.992;8.648;2023-12-29T05:46:18;99263.88;;;9.36
82297;BMP280;71899;51.992;8.648;2023-12-29T05:48:43;99268.41;;;9.45
82297;BMP280;71899;51.992;8.648;2023-12-29T05:51:10;99261.09;;;9.51
82297;BMP280;71899;51.992;8.648;2023-12-29T05:53:36;99246.94;;;9.42
82297;BMP280;71899;51.992;8.648;2023-12-29T05:56:02;99241.50;;;9.21
82297;BMP280;71899;51.992;8.648;2023-12-29T05:58:27;99252.50;;;9.37
82297;BMP280;71899;51.992;8.648;2023-12-29T06:00:54;99259.78;;;9.45
82297;BMP280;71899;51.992;8.648;2023-12-29T06:03:21;99261.16;;;9.38
82297;BMP280;71899;51.992;8.648;2023-12-29T06:05:47;99264.81;;;9.35
82297;BMP280;71899;51.992;8.648;2023-12-29T06:08:12;99269.09;;;9.36
82297;BMP280;71899;51.992;8.648;2023-12-29T06:10:37;99260.94;;;9.41
82297;BMP280;71899;51.992;8.648;2023-12-29T06:13:04;99265.41;;;9.39
82297;BMP280;71899;51.992;8.648;2023-12-29T06:15:30;99267.47;;;9.46
82297;BMP280;71899;51.992;8.648;2023-12-29T06:17:56;99275.91;;;9.50
82297;BMP280;71899;51.992;8.648;2023-12-29T06:20:22;99259.00;;;9.56
82297;BMP280;71899;51.992;8.648;2023-12-29T06:22:47;99291.78;;;9.47
82297;BMP280;71899;51.992;8.648;2023-12-29T06:25:13;99279.34;;;9.51
82297;BMP280;71899;51.992;8.648;2023-12-29T06:27:39;99274.03;;;9.52
82297;BMP280;71899;51.992;8.648;2023-12-29T06:30:06;99285.84;;;9.69
82297;BMP280;71899;51.992;8.648;2023-12-29T06:32:32;99286.44;;;9.72
82297;BMP280;71899;51.992;8.648;2023-12-29T06:34:57;99284.34;;;9.77
82297;BMP280;71899;51.992;8.648;2023-12-29T06:37:23;99282.91;;;9.73
82297;BMP280;71899;51.992;8.648;2023-12-29T06:39:49;99278.00;;;9.69
82297;BMP280;71899;51.992;8.648;2023-12-29T06:42:14;99287.38;;;9.71
82297;BMP280;71899;51.992;8.648;2023-12-29T06:44:40;99280.84;;;9.66
82297;BMP280;71899;51.992;8.648;2023-12-29T06:47:05;99286.59;;;9.82
82297;BMP280;71899;51.992;8.648;2023-12-29T06:49:34;99290.69;;;9.62
82297;BMP280;71899;51.992;8.648;2023-12-29T06:51:59;99270.75;;;9.61
82297;BMP280;71899;51.992;8.648;2023-12-29T06:54:25;99259.88;;;9.78
82297;BMP280;71899;51.992;8.648;2023-12-29T06:56:50;99284.72;;;9.60
82297;BMP280;71899;51.992;8.648;2023-12-29T06:59:15;99298.75;;;9.70
82297;BMP280;71899;51.992;8.648;2023-12-29T07:01:41;99297.81;;;9.71
82297;BMP280;71899;51.992;8.648;2023-12-29T07:04:06;99310.09;;;9.82
82297;BMP280;71899;51.992;8.648;2023-12-29T07:06:36;99296.09;;;9.83
82297;BMP280;71899;51.992;8.648;2023-12-29T07:09:02;99294.00;;;9.88
82297;BMP280;71899;51.992;8.648;2023-12-29T07:11:28;99290.78;;;9.84
82297;BMP280;71899;51.992;8.648;2023-12-29T07:13:54;99316.75;;;9.86
82297;BMP280;71899;51.992;8.648;2023-12-29T07:16:19;99305.75;;;9.93
82297;BMP280;71899;51.992;8.648;2023-12-29T07:18:48;99317.03;;;9.94
82297;BMP280;71899;51.992;8.648;2023-12-29T07:21:14;99297.53;;;9.87
82297;BMP280;71899;51.992;8.648;2023-12-29T07:23:40;99312.88;;;9.91
82297;BMP280;71899;51.992;8.648;2023-12-29T07:26:06;99307.03;;;9.88
82297;BMP280;71899;51.992;8.648;2023-12-29T07:28:32;99319.72;;;9.92
82297;BMP280;71899;51.992;8.648;2023-12-29T07:30:58;99311.91;;;9.92
82297;BMP280;71899;51.992;8.648;2023-12-29T07:33:23;99316.78;;;9.97
82297;BMP280;71899;51.992;8.648;2023-12-29T07:35:49;99316.91;;;10.07
82297;BMP280;71899;51.992;8.648;2023-12-29T07:38:15;99323.91;;;9.95
82297;BMP280;71899;51.992;8.648;2023-12-29T07:40:41;99329.75;;;9.99
82297;BMP280;71899;51.992;8.648;2023-12-29T07:43:06;99319.41;;;9.97
82297;BMP280;71899;51.992;8.648;2023-12-29T07:45:31;99310.09;;;10.17
82297;BMP280;71899;51.992;8.648;2023-12-29T07:47:57;99310.28;;;10.14
82297;BMP280;71899;51.992;8.648;2023-12-29T07:50:22;99318.09;;;10.03
82297;BMP280;71899;51.992;8.648;2023-12-29T07:52:48;99316.22;;;10.05
82297;BMP280;71899;51.992;8.648;2023-12-29T07:55:13;99308.38;;;10.05
82297;BMP280;71899;51.992;8.648;2023-12-29T07:57:42;99317.63;;;10.32
82297;BMP280;71899;51.992;8.648;2023-12-29T08:00:09;99324.44;;;10.11
82297;BMP280;71899;51.992;8.648;2023-12-29T08:02:37;99320.38;;;10.07
82297;BMP280;71899;51.992;8.648;2023-12-29T08:05:03;99318.81;;;10.05
82297;BMP280;71899;51.992;8.648;2023-12-29T08:07:28;99319.16;;;10.00
82297;BMP280;71899;51.992;8.648;2023-12-29T08:09:53;99327.56;;;10.16
82297;BMP280;71899;51.992;8.648;2023-12-29T08:12:20;99323.66;;;10.22
82297;BMP280;71899;51.992;8.648;2023-12-29T08:14:45;99317.59;;;10.21
82297;BMP280;71899;51.992;8.648;2023-12-29T08:17:11;99318.72;;;10.41
82297;BMP280;71899;51.992;8.648;2023-12-29T08:19:37;99317.81;;;10.18
82297;BMP280;71899;51.992;8.648;2023-12-29T08:22:03;99319.63;;;10.29
82297;BMP280;71899;51.992;8.648;2023-12-29T08:24:28;99319.75;;;10.38
82297;BMP280;71899;51.992;8.648;2023-12-29T08:26:54;99332.19;;;10.24
82297;BMP280;71899;51.992;8.648;2023-12-29T08:29:19;99310.38;;;10.36
82297;BMP280;71899;51.992;8.648;2023-12-29T08:31:48;99306.50;;;10.41
82297;BMP280;71899;51.992;8.648;2023-12-29T08:34:13;99311.66;;;10.19
82297;BMP280;71899;51.992;8.648;2023-12-29T08:36:38;99308.94;;;10.32
82297;BMP280;71899;51.992;8.648;2023-12-29T08:39:04;99308.69;;;10.24
82297;BMP280;71899;51.992;8.648;2023-12-29T08:41:29;99310.22;;;10.15
82297;BMP280;71899;51.992;8.648;2023-12-29T08:43:54;99319.13;;;9.89
82297;BMP280;71899;51.992;8.648;2023-12-29T08:46:20;99312.41;;;9.74
82297;BMP280;71899;51.992;8.648;2023-12-29T08:48:46;99319.38;;;9.62
82297;BMP280;71899;51.992;8.648;2023-12-29T08:51:12;99321.31;;;9.71
82297;BMP280;71899;51.992;8.648;2023-12-29T08:53:38;99323.00;;;9.49
82297;BMP280;71899;51.992;8.648;2023-12-29T08:56:04;99330.22;;;9.45
82297;BMP280;71899;51.992;8.648;2023-12-29T08:58:29;99331.00;;;9.45
82297;BMP280;71899;51.992;8.648;2023-12-29T09:00:55;99318.44;;;9.39
82297;BMP280;71899;51.992;8.648;2023-12-29T09:03:23;99322.84;;;9.26
82297;BMP280;71899;51.992;8.648;2023-12-29T09:05:48;99315.31;;;9.34
82297;BMP280;71899;51.992;8.648;2023-12-29T09:08:14;99319.50;;;9.24
82297;BMP280;71899;51.992;8.648;2023-12-29T09:10:39;99318.72;;;9.11
82297;BMP280;71899;51.992;8.648;2023-12-29T09:13:05;99324.84;;;9.23
82297;BMP280;71899;51.992;8.648;2023-12-29T09:15:30;99322.03;;;9.26
82297;BMP280;71899;51.992;8.648;2023-12-29T09:17:56;99311.69;;;9.24
82297;BMP280;71899;51.992;8.648;2023-12-29T09:20:21;99309.06;;;9.37
82297;BMP280;71899;51.992;8.648;2023-12-29T09:22:46;99315.81;;;9.16
82297;BMP280;71899;51.992;8.648;2023-12-29T09:25:12;99291.34;;;9.29
82297;BMP280;71899;51.992;8.648;2023-12-29T09:27:38;99306.53;;;9.35
82297;BMP280;71899;51.992;8.648;2023-12-29T09:30:04;99290.78;;;9.37
82297;BMP280;71899;51.992;8.648;2023-12-29T09:32:30;99313.50;;;9.48
82297;BMP280;71899;51.992;8.648;2023-12-29T09:34:55;99296.00;;;9.37
82297;BMP280;71899;51.992;8.648;2023-12-29T09:37:21;99301.44;;;9.34
82297;BMP280;71899;51.992;8.648;2023-12-29T09:39:47;99307.38;;;9.36
82297;BMP280;71899;51.992;8.648;2023-12-29T09:42:20;99312.16;;;9.42
82297;BMP280;71899;51.992;8.648;2023-12-29T09:44:49;99312.56;;;9.49
82297;BMP280;71899;51.992;8.648;2023-12-29T09:47:20;99297.91;;;9.59
82297;BMP280;71899;51.992;8.648;2023-12-29T09:49:48;99319.47;;;9.37
82297;BMP280;71899;51.992;8.648;2023-12-29T09:52:15;99333.59;;;9.58
82297;BMP280;71899;51.992;8.648;2023-12-29T09:54:41;99332.34;;;9.27
82297;BMP280;71899;51.992;8.648;2023-12-29T09:57:08;99342.44;;;9.32
82297;BMP280;71899;51.992;8.648;2023-12-29T09:59:38;99330.81;;;9.49
82297;BMP280;71899;51.992;8.648;2023-12-29T10:02:05;99296.00;;;9.61
82297;BMP280;71899;51.992;8.648;2023-12-29T10:04:31;99308.75;;;9.76
82297;BMP280;71899;51.992;8.648;2023-12-29T10:06:57;99306.06;;;9.54
82297;BMP280;71899;51.992;8.648;2023-12-29T10:09:26;99298.94;;;9.56
82297;BMP280;71899;51.992;8.648;2023-12-29T10:11:53;99299.72;;;9.69
82297;BMP280;71899;51.992;8.648;2023-12-29T10:15:47;99290.91;;;9.59
82297;BMP280;71899;51.992;8.648;2023-12-29T10:17:52;99306.06;;;9.54
82297;BMP280;71899;51.992;8.648;2023-12-29T10:23:07;99306.25;;;9.75
82297;BMP280;71899;51.992;8.648;2023-12-29T10:25:34;99310.53;;;9.76
82297;BMP280;71899;51.992;8.648;2023-12-29T10:28:04;99297.13;;;9.69
82297;BMP280;71899;51.992;8.648;2023-12-29T10:30:34;99311.03;;;9.81
82297;BMP280;71899;51.992;8.648;2023-12-29T10:33:02;99308.88;;;9.75
82297;BMP280;71899;51.992;8.648;2023-12-29T10:35:35;99297.81;;;10.06
82297;BMP280;71899;51.992;8.648;2023-12-29T10:38:13;99311.56;;;9.97
82297;BMP280;71899;51.992;8.648;2023-12-29T10:40:39;99311.75;;;9.83
82297;BMP280;71899;51.992;8.648;2023-12-29T10:43:05;99289.72;;;9.63
82297;BMP280;71899;51.992;8.648;2023-12-29T10:45:37;99311.19;;;9.90
82297;BMP280;71899;51.992;8.648;2023-12-29T10:48:02;99308.59;;;9.90
82297;BMP280;71899;51.992;8.648;2023-12-29T10:50:28;99298.22;;;10.13
82297;BMP280;71899;51.992;8.648;2023-12-29T10:53:15;99294.09;;;10.21
82297;BMP280;71899;51.992;8.648;2023-12-29T10:55:42;99293.91;;;10.12
82297;BMP280;71899;51.992;8.648;2023-12-29T10:58:08;99291.41;;;10.10
82297;BMP280;71899;51.992;8.648;2023-12-29T11:00:34;99284.22;;;10.25
82297;BMP280;71899;51.992;8.648;2023-12-29T11:03:00;99277.13;;;10.27
82297;BMP280;71899;51.992;8.648;2023-12-29T11:05:26;99279.16;;;10.23
82297;BMP280;71899;51.992;8.648;2023-12-29T11:07:53;99288.56;;;10.48
82297;BMP280;71899;51.992;8.648;2023-12-29T11:10:20;99272.28;;;10.33
82297;BMP280;71899;51.992;8.648;2023-12-29T11:12:47;99278.09;;;10.48
82297;BMP280;71899;51.992;8.648;2023-12-29T11:15:14;99288.03;;;10.32
82297;BMP280;71899;51.992;8.648;2023-12-29T11:17:41;99287.22;;;10.31
82297;BMP280;71899;51.992;8.648;2023-12-29T11:20:15;99291.63;;;10.42
82297;BMP280;71899;51.992;8.648;2023-12-29T11:22:43;99288.66;;;10.35
82297;BMP280;71899;51.992;8.648;2023-12-29T11:25:11;99279.75;;;10.38
82297;BMP280;71899;51.992;8.648;2023-12-29T11:27:36;99280.81;;;10.35
82297;BMP280;71899;51.992;8.648;2023-12-29T11:30:03;99276.66;;;10.33
82297;BMP280;71899;51.992;8.648;2023-12-29T11:35:13;99289.97;;;10.30
82297;BMP280;71899;51.992;8.648;2023-12-29T11:38:08;99280.34;;;10.30
82297;BMP280;71899;51.992;8.648;2023-12-29T11:40:54;99289.38;;;10.49
82297;BMP280;71899;51.992;8.648;2023-12-29T11:43:25;99292.16;;;10.12
82297;BMP280;71899;51.992;8.648;2023-12-29T11:45:51;99279.09;;;10.12
82297;BMP280;71899;51.992;8.648;2023-12-29T11:48:55;99291.88;;;10.04
82297;BMP280;71899;51.992;8.648;2023-12-29T11:51:34;99288.09;;;10.08
82297;BMP280;71899;51.992;8.648;2023-12-29T11:54:01;99273.31;;;10.20
82297;BMP280;71899;51.992;8.648;2023-12-29T11:56:37;99281.16;;;10.20
82297;BMP280;71899;51.992;8.648;2023-12-29T11:59:21;99268.22;;;10.29
82297;BMP280;71899;51.992;8.648;2023-12-29T12:01:48;99283.22;;;10.04
82297;BMP280;71899;51.992;8.648;2023-12-29T12:04:34;99286.59;;;9.82
82297;BMP280;71899;51.992;8.648;2023-12-29T12:07:00;99285.41;;;9.86
82297;BMP280;71899;51.992;8.648;2023-12-29T12:09:26;99291.41;;;10.10
82297;BMP280;71899;51.992;8.648;2023-12-29T12:11:51;99268.91;;;10.20
82297;BMP280;71899;51.992;8.648;2023-12-29T12:17:10;99276.47;;;10.12
82297;BMP280;71899;51.992;8.648;2023-12-29T12:19:36;99257.47;;;10.10
82297;BMP280;71899;51.992;8.648;2023-12-29T12:22:01;99273.28;;;10.09
82297;BMP280;71899;51.992;8.648;2023-12-29T12:24:28;99272.84;;;10.26
82297;BMP280;71899;51.992;8.648;2023-12-29T12:26:56;99267.25;;;10.19
82297;BMP280;71899;51.992;8.648;2023-12-29T12:29:22;99267.88;;;10.34
82297;BMP280;71899;51.992;8.648;2023-12-29T12:31:55;99259.09;;;10.46
82297;BMP280;71899;51.992;8.648;2023-12-29T12:34:21;99265.28;;;10.34
82297;BMP280;71899;51.992;8.648;2023-12-29T12:36:51;99266.00;;;10.58
82297;BMP280;71899;51.992;8.648;2023-12-29T12:39:17;99264.28;;;10.35
82297;BMP280;71899;51.992;8.648;2023-12-29T12:41:42;99266.56;;;10.39
82297;BMP280;71899;51.992;8.648;2023-12-29T12:44:13;99277.25;;;10.25
82297;BMP280;71899;51.992;8.648;2023-12-29T12:49:39;99291.25;;;10.24
82297;BMP280;71899;51.992;8.648;2023-12-29T12:52:07;99292.41;;;10.20
82297;BMP280;71899;51.992;8.648;2023-12-29T12:54:34;99267.16;;;10.32
82297;BMP280;71899;51.992;8.648;2023-12-29T12:57:00;99269.16;;;10.17
82297;BMP280;71899;51.992;8.648;2023-12-29T12:59:27;99261.56;;;10.25
82297;BMP280;71899;51.992;8.648;2023-12-29T13:01:56;99259.22;;;10.33
82297;BMP280;71899;51.992;8.648;2023-12-29T13:04:21;99276.78;;;10.42
82297;BMP280;71899;51.992;8.648;2023-12-29T13:06:46;99258.88;;;10.38
82297;BMP280;71899;51.992;8.648;2023-12-29T13:09:18;99257.44;;;10.34
82297;BMP280;71899;51.992;8.648;2023-12-29T13:12:07;99240.31;;;10.30
82297;BMP280;71899;51.992;8.648;2023-12-29T13:14:33;99250.31;;;10.47
82297;BMP280;71899;51.992;8.648;2023-12-29T13:17:05;99230.81;;;10.62
82297;BMP280;71899;51.992;8.648;2023-12-29T13:19:34;99232.72;;;10.60
82297;BMP280;71899;51.992;8.648;2023-12-29T13:22:00;99237.22;;;10.80
82297;BMP280;71899;51.992;8.648;2023-12-29T13:24:26;99222.84;;;10.53
82297;BMP280;71899;51.992;8.648;2023-12-29T13:26:57;99230.84;;;10.51
82297;BMP280;71899;51.992;8.648;2023-12-29T13:29:24;99235.66;;;10.67
82297;BMP280;71899;51.992;8.648;2023-12-29T13:32:10;99230.59;;;10.65
82297;BMP280;71899;51.992;8.648;2023-12-29T13:35:01;99237.84;;;10.51
82297;BMP280;71899;51.992;8.648;2023-12-29T13:37:43;99227.38;;;10.39
82297;BMP280;71899;51.992;8.648;2023-12-29T13:42:48;99235.13;;;10.52
82297;BMP280;71899;51.992;8.648;2023-12-29T13:45:15;99227.38;;;10.51
82297;BMP280;71899;51.992;8.648;2023-12-29T13:47:41;99239.38;;;10.42
82297;BMP280;71899;51.992;8.648;2023-12-29T13:50:09;99245.66;;;10.51
82297;BMP280;71899;51.992;8.648;2023-12-29T13:52:36;99230.34;;;10.57
82297;BMP280;71899;51.992;8.648;2023-12-29T13:55:01;99225.34;;;10.65
82297;BMP280;71899;51.992;8.648;2023-12-29T13:57:36;99230.25;;;10.59
82297;BMP280;71899;51.992;8.648;2023-12-29T14:00:23;99236.66;;;10.66
82297;BMP280;71899;51.992;8.648;2023-12-29T14:05:40;99227.72;;;10.46
82297;BMP280;71899;51.992;8.648;2023-12-29T14:08:24;99237.84;;;10.62
82297;BMP280;71899;51.992;8.648;2023-12-29T14:10:50;99236.66;;;10.55
82297;BMP280;71899;51.992;8.648;2023-12-29T14:13:16;99227.97;;;10.43
82297;BMP280;71899;51.992;8.648;2023-12-29T14:15:43;99243.06;;;10.62
82297;BMP280;71899;51.992;8.648;2023-12-29T14:20:37;99242.13;;;10.40
82297;BMP280;71899;51.992;8.648;2023-12-29T14:23:03;99249.97;;;10.52
82297;BMP280;71899;51.992;8.648;2023-12-29T14:25:31;99246.84;;;10.47
82297;BMP280;71899;51.992;8.648;2023-12-29T14:27:59;99251.13;;;10.48
82297;BMP280;71899;51.992;8.648;2023-12-29T14:30:26;99248.53;;;10.59
82297;BMP280;71899;51.992;8.648;2023-12-29T14:32:53;99234.53;;;10.49
82297;BMP280;71899;51.992;8.648;2023-12-29T14:35:19;99219.88;;;10.57
82297;BMP280;71899;51.992;8.648;2023-12-29T14:37:44;99226.31;;;10.53
82297;BMP280;71899;51.992;8.648;2023-12-29T14:40:13;99212.06;;;10.57